Time;durP1;ratioP1;P1;durP2;ratioP2;P2;SDS_P1;SDS_P2;PMS_P1;PMS_P2;Temp;Humidity;BMP_temperature;BMP_pressure;BME280_temperature;BME280_humidity;BME280_pressure;Samples;Min_cycle;Max_cycle;Signal;HPM_P1;HPM_P2
2021/03/20 00:01:08;;;;;;;6.20;4.25;;;0.30;99.90;;;;;;5108473;27;22118;-78
2021/03/20 00:03:34;;;;;;;7.40;4.75;;;0.30;99.90;;;;;;5123398;27;20423;-77
2021/03/20 00:06:00;;;;;;;7.10;4.72;;;0.30;99.90;;;;;;5145502;27;20092;-77
2021/03/20 00:08:26;;;;;;;7.25;4.30;;;0.20;99.90;;;;;;5143483;27;20050;-77
2021/03/20 00:10:56;;;;;;;13.15;6.22;;;0.20;99.90;;;;;;5146840;27;20122;-77
2021/03/20 00:13:24;;;;;;;11.85;7.50;;;0.20;99.90;;;;;;5142939;27;20031;-77
2021/03/20 00:15:53;;;;;;;13.57;7.45;;;0.20;99.90;;;;;;5142292;27;20050;-77
2021/03/20 00:18:22;;;;;;;15.20;7.07;;;0.10;99.90;;;;;;5144450;27;20061;-77
2021/03/20 00:20:48;;;;;;;11.75;6.55;;;0.10;99.90;;;;;;5143110;27;20039;-78
2021/03/20 00:23:14;;;;;;;11.85;6.22;;;0.10;99.90;;;;;;5142466;27;20385;-78
2021/03/20 00:25:40;;;;;;;14.90;7.43;;;0.10;99.90;;;;;;5133091;27;20354;-78
2021/03/20 00:28:09;;;;;;;14.10;7.88;;;0.10;99.90;;;;;;5126852;27;20043;-78
2021/03/20 00:30:37;;;;;;;12.85;7.75;;;0.10;99.90;;;;;;5123690;27;20493;-78
2021/03/20 00:33:03;;;;;;;11.48;7.15;;;0.00;99.90;;;;;;5124794;27;20043;-78
2021/03/20 00:35:31;;;;;;;17.52;7.80;;;0.00;99.90;;;;;;5146678;27;20126;-78
2021/03/20 00:37:57;;;;;;;18.48;9.05;;;0.00;99.90;;;;;;5145906;27;20039;-78
2021/03/20 00:40:27;;;;;;;13.80;8.80;;;0.00;99.90;;;;;;5147086;27;20103;-78
2021/03/20 00:42:53;;;;;;;11.30;7.25;;;0.00;99.90;;;;;;5141110;27;20063;-77
2021/03/20 00:45:21;;;;;;;12.77;6.63;;;0.00;99.90;;;;;;5141277;27;20402;-77
2021/03/20 00:47:47;;;;;;;11.95;6.10;;;-0.10;99.90;;;;;;5139705;27;20043;-77
2021/03/20 00:50:17;;;;;;;11.50;6.78;;;-0.10;99.90;;;;;;5124663;27;21373;-77
2021/03/20 00:52:43;;;;;;;13.60;7.88;;;-0.10;99.90;;;;;;5145677;27;20474;-77
2021/03/20 00:55:11;;;;;;;16.55;8.02;;;-0.10;99.90;;;;;;5130199;27;20133;-78
2021/03/20 00:57:37;;;;;;;14.82;8.10;;;-0.10;99.90;;;;;;5147051;27;20035;-77
2021/03/20 01:00:09;;;;;;;14.90;7.90;;;-0.10;99.90;;;;;;5124006;27;20042;-78
2021/03/20 01:02:35;;;;;;;14.25;8.00;;;-0.10;99.90;;;;;;5109734;27;20054;-78
2021/03/20 01:05:01;;;;;;;11.65;7.25;;;-0.20;99.90;;;;;;5128164;27;20064;-77
2021/03/20 01:07:27;;;;;;;13.60;7.95;;;-0.20;99.90;;;;;;5117779;27;20051;-77
2021/03/20 01:09:52;;;;;;;14.13;6.85;;;-0.30;99.90;;;;;;5125826;27;20039;-77
2021/03/20 01:12:19;;;;;;;12.73;7.60;;;-0.30;99.90;;;;;;5147095;27;20061;-77
2021/03/20 01:14:44;;;;;;;12.35;6.82;;;-0.30;99.90;;;;;;5093670;27;20039;-77
2021/03/20 01:17:10;;;;;;;17.35;7.05;;;-0.30;99.90;;;;;;5113620;27;20110;-77
2021/03/20 01:19:36;;;;;;;13.23;7.00;;;-0.30;99.90;;;;;;5126820;27;20138;-78
2021/03/20 01:22:03;;;;;;;9.65;6.13;;;-0.40;99.90;;;;;;5147511;27;20081;-78
2021/03/20 01:24:28;;;;;;;10.93;6.57;;;-0.30;99.90;;;;;;5128989;27;20110;-78
2021/03/20 01:26:54;;;;;;;12.35;6.28;;;-0.30;99.90;;;;;;5122647;27;20058;-78
2021/03/20 01:29:20;;;;;;;11.13;6.70;;;-0.30;99.90;;;;;;5147726;27;20504;-78
2021/03/20 01:31:46;;;;;;;10.05;6.55;;;-0.30;99.90;;;;;;5142550;27;20040;-78
2021/03/20 01:34:11;;;;;;;11.98;6.57;;;-0.40;99.90;;;;;;5148244;27;20359;-78
2021/03/20 01:36:37;;;;;;;11.23;6.57;;;-0.40;99.90;;;;;;5121920;27;20381;-78
2021/03/20 01:39:05;;;;;;;9.57;5.90;;;-0.40;99.90;;;;;;5145644;27;20102;-78
2021/03/20 01:41:31;;;;;;;11.82;6.07;;;-0.40;99.90;;;;;;5147117;27;20134;-78
2021/03/20 01:43:57;;;;;;;14.02;6.05;;;-0.40;99.90;;;;;;5146431;27;20113;-78
2021/03/20 01:46:34;;;;;;;12.95;7.10;;;-0.40;99.90;;;;;;5127224;27;20133;-78
2021/03/20 01:49:03;;;;;;;14.95;9.20;;;-0.40;99.90;;;;;;5125216;27;20042;-78
2021/03/20 01:51:29;;;;;;;12.48;8.10;;;-0.40;99.90;;;;;;5149660;27;20038;-78
2021/03/20 01:53:58;;;;;;;12.70;7.20;;;-0.40;99.90;;;;;;5142995;27;20140;-78
2021/03/20 01:56:35;;;;;;;9.82;6.80;;;-0.40;99.90;;;;;;5126693;27;20030;-78
2021/03/20 01:59:02;;;;;;;11.98;6.30;;;-0.40;99.90;;;;;;5123591;27;20043;-78
2021/03/20 02:01:30;;;;;;;9.48;6.20;;;-0.40;99.90;;;;;;5148258;27;20034;-78
2021/03/20 02:03:57;;;;;;;11.35;6.00;;;-0.40;99.90;;;;;;5135342;27;20067;-78
2021/03/20 02:06:25;;;;;;;10.70;6.05;;;-0.40;99.90;;;;;;5152726;27;20039;-78
2021/03/20 02:08:54;;;;;;;10.98;5.95;;;-0.40;99.90;;;;;;5128818;27;20030;-78
2021/03/20 02:11:30;;;;;;;10.13;6.10;;;-0.40;99.90;;;;;;5143312;27;21953;-77
2021/03/20 02:14:31;;;;;;;7.57;5.63;;;-0.50;99.90;;;;;;5127391;27;20042;-78
2021/03/20 02:17:44;;;;;;;10.15;5.93;;;-0.50;99.90;;;;;;5123191;27;20035;-78
2021/03/20 02:20:42;;;;;;;9.48;5.20;;;-0.60;99.90;;;;;;5016812;28;20041;-78
2021/03/20 02:23:07;;;;;;;12.55;5.88;;;-0.60;99.90;;;;;;5013420;28;20088;-78
2021/03/20 02:26:04;;;;;;;9.88;5.72;;;-0.60;99.90;;;;;;5012270;28;20128;-78
2021/03/20 02:28:59;;;;;;;8.45;5.68;;;-0.70;99.90;;;;;;4996241;28;20145;-78
2021/03/20 02:31:55;;;;;;;11.38;5.80;;;-0.70;99.90;;;;;;5002419;28;20546;-78
2021/03/20 02:35:10;;;;;;;8.75;5.45;;;-0.80;99.90;;;;;;5002617;28;20551;-79
2021/03/20 02:37:58;;;;;;;7.80;5.47;;;-0.80;99.90;;;;;;4931443;28;20043;-79
2021/03/20 02:40:29;;;;;;;10.25;6.15;;;-0.80;99.90;;;;;;4936923;28;20043;-79
2021/03/20 02:43:23;;;;;;;8.93;5.65;;;-0.80;99.90;;;;;;4935094;28;20139;-79
2021/03/20 02:46:21;;;;;;;9.27;5.85;;;-0.80;99.90;;;;;;4921958;29;20574;-77
2021/03/20 02:49:00;;;;;;;11.63;7.10;;;-0.80;99.90;;;;;;4938633;29;20055;-77
2021/03/20 02:51:31;;;;;;;17.25;9.70;;;-0.80;99.90;;;;;;4995130;28;20503;-77
2021/03/20 02:54:09;;;;;;;14.85;9.43;;;-0.90;99.90;;;;;;5018569;28;20046;-77
2021/03/20 02:56:51;;;;;;;13.65;8.77;;;-0.90;99.90;;;;;;5029831;28;20057;-77
2021/03/20 02:59:19;;;;;;;14.95;8.15;;;-0.90;99.90;;;;;;5017062;28;20129;-77
2021/03/20 03:01:49;;;;;;;14.50;8.02;;;-0.90;99.90;;;;;;5010723;28;20061;-77
2021/03/20 03:04:18;;;;;;;12.40;7.07;;;-0.90;99.90;;;;;;5030329;28;20099;-78
2021/03/20 03:06:52;;;;;;;14.27;7.47;;;-1.00;99.90;;;;;;5011024;28;20056;-77
2021/03/20 03:09:35;;;;;;;10.32;7.10;;;-1.00;99.90;;;;;;5138412;27;20039;-78
2021/03/20 03:12:29;;;;;;;10.18;6.38;;;-1.00;99.90;;;;;;5145192;27;20031;-78
2021/03/20 03:15:05;;;;;;;10.60;6.40;;;-1.00;99.90;;;;;;5145816;27;20042;-79
2021/03/20 03:17:35;;;;;;;8.80;5.82;;;-1.00;99.90;;;;;;5145487;27;20126;-79
2021/03/20 03:20:12;;;;;;;13.40;6.78;;;-1.00;99.90;;;;;;5126170;27;20050;-80
2021/03/20 03:22:50;;;;;;;13.68;5.97;;;-1.00;99.90;;;;;;5134226;27;21537;-79
2021/03/20 03:25:20;;;;;;;9.18;6.00;;;-1.00;99.90;;;;;;5143702;27;20086;-80
2021/03/20 03:27:50;;;;;;;9.43;6.45;;;-1.00;99.90;;;;;;5147610;27;20038;-80
2021/03/20 03:30:19;;;;;;;10.77;6.85;;;-0.90;99.90;;;;;;5127064;27;20483;-79
2021/03/20 03:32:57;;;;;;;10.55;6.57;;;-0.90;99.90;;;;;;5140650;27;21507;-80
2021/03/20 03:35:29;;;;;;;14.10;6.80;;;-0.80;99.90;;;;;;5122463;27;20122;-80
2021/03/20 03:37:56;;;;;;;11.57;6.85;;;-0.70;99.90;;;;;;5148043;27;20033;-80
2021/03/20 03:40:39;;;;;;;11.70;7.00;;;-0.70;99.90;;;;;;5138473;27;20034;-79
2021/03/20 03:43:05;;;;;;;14.60;7.78;;;-0.60;99.90;;;;;;5125023;27;20576;-78
2021/03/20 03:45:31;;;;;;;17.55;8.00;;;-0.50;99.90;;;;;;5144278;27;20504;-78
2021/03/20 03:48:00;;;;;;;11.35;6.90;;;-0.50;99.90;;;;;;5150867;27;20470;-79
2021/03/20 03:50:31;;;;;;;11.25;7.50;;;-0.40;99.90;;;;;;5142347;27;20039;-79
2021/03/20 03:52:57;;;;;;;13.40;7.07;;;-0.40;99.90;;;;;;5143049;27;20037;-79
2021/03/20 03:55:23;;;;;;;14.35;7.55;;;-0.30;99.90;;;;;;5128110;27;20154;-78
2021/03/20 03:57:54;;;;;;;15.63;7.75;;;-0.30;99.90;;;;;;5147118;27;20057;-78
2021/03/20 04:00:39;;;;;;;13.88;8.43;;;-0.20;99.90;;;;;;5145804;27;20059;-79
2021/03/20 04:03:51;;;;;;;12.65;7.70;;;-0.20;99.90;;;;;;5143691;27;20031;-79
2021/03/20 04:06:54;;;;;;;15.98;7.88;;;-0.10;99.90;;;;;;5130162;27;20070;-80
2021/03/20 04:09:28;;;;;;;11.82;7.60;;;-0.10;99.90;;;;;;5127944;27;20043;-80
2021/03/20 04:12:24;;;;;;;11.00;7.63;;;0.00;99.90;;;;;;5145252;27;20397;-79
2021/03/20 04:15:02;;;;;;;12.35;7.95;;;0.00;99.90;;;;;;5145420;27;20052;-79
2021/03/20 04:17:59;;;;;;;18.02;8.48;;;0.00;99.90;;;;;;5125894;27;20046;-79
2021/03/20 04:20:37;;;;;;;11.88;7.70;;;0.00;99.90;;;;;;5101277;27;20054;-79
2021/03/20 04:23:15;;;;;;;12.50;7.90;;;0.00;99.90;;;;;;5147294;27;20043;-80
2021/03/20 04:25:53;;;;;;;13.90;7.78;;;0.00;99.90;;;;;;5128545;27;20155;-79
2021/03/20 04:28:49;;;;;;;13.07;7.68;;;0.10;99.90;;;;;;5148202;27;20031;-80
2021/03/20 04:31:31;;;;;;;11.32;7.18;;;0.10;99.90;;;;;;5115290;27;20051;-80
2021/03/20 04:34:41;;;;;;;11.15;7.55;;;0.10;99.90;;;;;;5106557;27;20031;-80
2021/03/20 04:37:14;;;;;;;12.27;7.75;;;0.00;99.90;;;;;;5095321;27;20040;-80
2021/03/20 04:39:46;;;;;;;12.80;7.35;;;0.00;99.90;;;;;;5119051;27;20048;-80
2021/03/20 04:42:14;;;;;;;14.32;7.60;;;-0.10;99.90;;;;;;5104935;27;20039;-80
2021/03/20 04:44:40;;;;;;;14.98;7.55;;;-0.10;99.90;;;;;;5106359;27;20537;-81
2021/03/20 04:47:16;;;;;;;15.23;7.50;;;-0.10;99.90;;;;;;5100802;27;20047;-80
2021/03/20 04:49:50;;;;;;;11.35;8.02;;;-0.10;99.90;;;;;;5116605;27;20081;-80
2021/03/20 04:52:22;;;;;;;13.15;8.13;;;-0.20;99.90;;;;;;5101170;27;20053;-81
2021/03/20 04:54:48;;;;;;;12.68;7.97;;;-0.20;99.90;;;;;;5120870;27;20185;-80
2021/03/20 04:57:40;;;;;;;11.50;7.75;;;-0.20;99.90;;;;;;5120499;27;20073;-81
2021/03/20 05:00:36;;;;;;;12.25;7.30;;;-0.20;99.90;;;;;;5109579;27;20082;-79
2021/03/20 05:03:26;;;;;;;12.85;7.75;;;-0.20;99.90;;;;;;5121481;27;20077;-80
2021/03/20 05:06:24;;;;;;;13.90;8.05;;;-0.20;99.90;;;;;;5146390;27;20378;-79
2021/03/20 05:09:04;;;;;;;14.25;7.95;;;-0.10;99.90;;;;;;5146254;27;20053;-79
2021/03/20 05:11:56;;;;;;;12.10;7.57;;;-0.10;99.90;;;;;;5131388;27;20127;-79
2021/03/20 05:14:36;;;;;;;11.35;7.80;;;-0.10;99.90;;;;;;5150156;27;20050;-80
2021/03/20 05:17:06;;;;;;;11.93;7.40;;;-0.10;99.90;;;;;;5134602;27;20130;-80
2021/03/20 05:19:32;;;;;;;11.80;7.57;;;0.10;99.90;;;;;;5150931;27;20050;-80
2021/03/20 05:21:58;;;;;;;12.60;8.07;;;0.00;99.90;;;;;;5129188;27;20054;-80
2021/03/20 05:24:34;;;;;;;11.93;8.10;;;0.00;99.90;;;;;;5130907;27;20054;-80
2021/03/20 05:27:02;;;;;;;12.45;7.25;;;0.00;99.90;;;;;;5149067;27;20035;-80
2021/03/20 05:29:28;;;;;;;11.23;7.60;;;0.10;99.90;;;;;;5148638;27;20054;-80
2021/03/20 05:31:56;;;;;;;11.05;7.82;;;0.10;99.90;;;;;;5119249;27;20034;-79
2021/03/20 05:34:29;;;;;;;14.57;7.38;;;0.10;99.90;;;;;;5144671;27;20075;-79
2021/03/20 05:36:55;;;;;;;12.23;7.93;;;0.20;99.90;;;;;;5127906;27;20095;-80
2021/03/20 05:39:22;;;;;;;12.45;7.72;;;0.20;99.90;;;;;;5148355;27;20062;-80
2021/03/20 05:41:51;;;;;;;12.90;7.97;;;0.20;99.90;;;;;;5127682;27;20042;-80
2021/03/20 05:44:25;;;;;;;13.57;7.85;;;0.20;99.90;;;;;;5124396;27;20038;-80
2021/03/20 05:47:02;;;;;;;10.80;7.43;;;0.30;99.90;;;;;;5130301;27;20537;-80
2021/03/20 05:49:50;;;;;;;9.80;7.03;;;0.30;99.90;;;;;;5129432;27;20031;-80
2021/03/20 05:52:53;;;;;;;11.93;7.53;;;0.30;99.90;;;;;;5145005;27;20027;-80
2021/03/20 05:55:29;;;;;;;11.38;7.57;;;0.30;99.90;;;;;;5146417;27;20059;-80
2021/03/20 05:58:17;;;;;;;9.45;6.88;;;0.30;99.90;;;;;;5117769;27;20072;-79
2021/03/20 06:01:02;;;;;;;11.88;7.40;;;0.30;99.90;;;;;;5148979;27;20034;-80
2021/03/20 06:03:53;;;;;;;12.82;8.07;;;0.30;99.90;;;;;;5129103;27;20031;-80
2021/03/20 06:06:37;;;;;;;10.48;7.38;;;0.30;99.90;;;;;;5132796;27;20102;-80
2021/03/20 06:09:16;;;;;;;12.02;7.18;;;0.30;99.90;;;;;;5148450;27;20031;-80
2021/03/20 06:12:04;;;;;;;13.75;7.78;;;0.30;99.90;;;;;;5144420;27;20062;-80
2021/03/20 06:14:50;;;;;;;11.18;7.15;;;0.40;99.90;;;;;;5129188;27;20057;-80
2021/03/20 06:17:49;;;;;;;10.80;7.60;;;0.40;99.90;;;;;;5127915;27;20054;-79
2021/03/20 06:20:27;;;;;;;11.07;7.40;;;0.50;99.90;;;;;;5151247;27;20390;-80
2021/03/20 06:23:16;;;;;;;12.35;7.60;;;0.70;99.90;;;;;;5150406;27;20034;-79
2021/03/20 06:25:47;;;;;;;9.93;7.28;;;0.50;99.90;;;;;;5145866;27;20392;-80
2021/03/20 06:28:17;;;;;;;10.30;7.55;;;0.50;99.90;;;;;;5148622;27;20039;-79
2021/03/20 06:30:49;;;;;;;10.93;7.80;;;0.60;99.90;;;;;;5147223;27;20035;-80
2021/03/20 06:33:28;;;;;;;13.32;8.25;;;0.70;99.90;;;;;;5123277;27;20389;-80
2021/03/20 06:36:17;;;;;;;12.10;7.90;;;0.70;99.90;;;;;;5121887;27;20047;-80
2021/03/20 06:38:50;;;;;;;12.63;7.90;;;0.70;99.90;;;;;;5147847;27;20027;-80
2021/03/20 06:41:46;;;;;;;12.23;7.70;;;0.70;99.90;;;;;;5144939;27;20398;-80
2021/03/20 06:44:30;;;;;;;10.98;7.60;;;0.70;99.90;;;;;;5010098;28;20186;-80
2021/03/20 06:46:56;;;;;;;12.00;8.10;;;0.80;99.90;;;;;;5043201;28;22570;-80
2021/03/20 06:49:31;;;;;;;10.43;7.55;;;0.80;99.90;;;;;;5007744;28;20049;-80
2021/03/20 06:51:59;;;;;;;10.07;6.65;;;0.90;99.90;;;;;;5041886;28;20433;-79
2021/03/20 06:54:26;;;;;;;13.77;7.93;;;0.90;99.90;;;;;;5043409;28;20045;-79
2021/03/20 06:56:52;;;;;;;10.93;7.57;;;1.00;99.90;;;;;;5027510;28;20055;-77
2021/03/20 06:59:23;;;;;;;10.35;7.47;;;1.00;99.90;;;;;;5026917;28;20507;-77
2021/03/20 07:02:23;;;;;;;13.40;7.80;;;1.10;99.90;;;;;;5028012;28;20048;-77
2021/03/20 07:05:15;;;;;;;11.18;7.63;;;1.10;99.90;;;;;;4968947;28;20097;-77
2021/03/20 07:07:54;;;;;;;12.40;8.02;;;1.20;99.90;;;;;;4985079;28;20505;-78
2021/03/20 07:10:48;;;;;;;10.70;7.72;;;1.20;99.90;;;;;;4990381;28;20485;-80
2021/03/20 07:13:22;;;;;;;11.10;7.78;;;1.30;99.90;;;;;;4966145;28;20050;-80
2021/03/20 07:16:08;;;;;;;13.63;8.23;;;1.40;99.90;;;;;;4984912;28;20058;-80
2021/03/20 07:18:42;;;;;;;10.77;7.90;;;1.50;99.90;;;;;;4987370;28;20109;-79
2021/03/20 07:21:40;;;;;;;15.52;8.05;;;1.50;99.90;;;;;;5023823;28;20057;-77
2021/03/20 07:24:08;;;;;;;15.90;8.10;;;1.80;99.90;;;;;;5039521;28;20063;-78
2021/03/20 07:26:53;;;;;;;12.75;7.88;;;1.70;99.90;;;;;;5062755;28;20040;-80
2021/03/20 07:29:39;;;;;;;10.52;7.82;;;1.70;99.90;;;;;;5041882;28;20048;-78
2021/03/20 07:32:05;;;;;;;12.82;8.30;;;1.70;99.90;;;;;;5043479;28;20086;-79
2021/03/20 07:34:32;;;;;;;14.68;8.18;;;2.00;99.90;;;;;;5047226;28;20044;-78
2021/03/20 07:37:18;;;;;;;13.75;8.98;;;2.00;99.90;;;;;;5056672;28;20422;-79
2021/03/20 07:39:51;;;;;;;10.68;7.80;;;1.90;99.90;;;;;;5063100;27;20095;-78
2021/03/20 07:42:25;;;;;;;13.65;7.93;;;2.00;99.90;;;;;;5131416;27;20038;-79
2021/03/20 07:45:07;;;;;;;11.35;7.90;;;2.10;99.90;;;;;;5144626;27;20514;-78
2021/03/20 07:47:37;;;;;;;13.15;7.93;;;2.20;99.90;;;;;;5154659;27;20507;-77
2021/03/20 07:50:06;;;;;;;10.80;7.75;;;2.30;99.90;;;;;;5155302;27;20038;-75
2021/03/20 07:52:32;;;;;;;12.15;7.85;;;2.40;99.90;;;;;;5131657;27;20039;-78
2021/03/20 07:55:17;;;;;;;13.00;7.60;;;2.60;99.90;;;;;;5152556;27;20068;-78
2021/03/20 07:58:12;;;;;;;10.30;6.53;;;2.70;99.90;;;;;;5134432;27;20145;-79
2021/03/20 08:00:46;;;;;;;11.13;6.57;;;3.00;99.90;;;;;;5130314;27;20043;-78
2021/03/20 08:03:22;;;;;;;14.60;7.15;;;3.10;99.90;;;;;;5152568;27;20069;-78
2021/03/20 08:05:48;;;;;;;11.18;6.60;;;3.10;99.90;;;;;;5132796;27;20061;-76
2021/03/20 08:08:27;;;;;;;10.77;6.55;;;3.20;99.90;;;;;;5133950;27;20401;-79
2021/03/20 08:10:58;;;;;;;9.60;6.10;;;3.20;99.90;;;;;;5129056;27;20097;-79
2021/03/20 08:13:27;;;;;;;10.23;6.80;;;3.20;99.90;;;;;;5125286;27;20087;-78
2021/03/20 08:15:56;;;;;;;8.93;6.57;;;3.40;99.90;;;;;;5142597;27;20039;-78
2021/03/20 08:18:25;;;;;;;8.77;5.85;;;3.50;99.90;;;;;;5145202;27;20043;-78
2021/03/20 08:21:08;;;;;;;7.90;5.60;;;3.70;99.90;;;;;;5126929;27;20043;-77
2021/03/20 08:24:23;;;;;;;11.10;6.00;;;3.80;99.90;;;;;;5145646;27;20525;-78
2021/03/20 08:27:21;;;;;;;8.50;5.93;;;4.00;99.90;;;;;;5125201;27;20050;-77
2021/03/20 08:30:04;;;;;;;11.15;6.20;;;4.10;99.90;;;;;;5135852;27;20129;-77
2021/03/20 08:32:42;;;;;;;10.35;6.43;;;4.20;99.90;;;;;;5145963;27;20481;-78
2021/03/20 08:35:32;;;;;;;11.18;5.45;;;4.20;99.90;;;;;;5124536;27;20058;-77
2021/03/20 08:38:12;;;;;;;13.90;6.57;;;4.30;99.90;;;;;;5132367;27;20039;-79
2021/03/20 08:40:57;;;;;;;8.23;5.85;;;4.40;99.90;;;;;;5126767;27;20053;-79
2021/03/20 08:43:48;;;;;;;10.18;5.72;;;4.50;99.90;;;;;;5146266;27;20533;-78
2021/03/20 08:46:34;;;;;;;8.75;5.63;;;4.60;99.90;;;;;;5118548;27;20117;-78
2021/03/20 08:49:28;;;;;;;9.35;6.13;;;4.70;99.90;;;;;;5148279;27;20039;-78
2021/03/20 08:52:21;;;;;;;6.80;4.78;;;4.70;99.90;;;;;;5128472;27;20062;-79
2021/03/20 08:55:09;;;;;;;7.50;5.78;;;4.80;99.90;;;;;;5138720;27;20053;-78
2021/03/20 08:58:04;;;;;;;8.85;5.20;;;4.80;99.90;;;;;;5154341;27;20034;-78
2021/03/20 09:00:41;;;;;;;8.27;5.47;;;4.70;99.90;;;;;;5133699;27;20043;-79
2021/03/20 09:03:20;;;;;;;10.57;5.93;;;4.80;99.90;;;;;;5134872;27;20050;-78
2021/03/20 09:05:53;;;;;;;8.43;5.97;;;4.90;99.90;;;;;;5135962;27;20508;-78
2021/03/20 09:08:38;;;;;;;8.10;5.90;;;5.00;99.90;;;;;;5153989;27;20053;-78
2021/03/20 09:11:23;;;;;;;8.75;5.20;;;5.20;99.90;;;;;;5155914;27;20039;-78
2021/03/20 09:14:22;;;;;;;8.52;6.30;;;5.10;99.90;;;;;;5150354;27;20122;-77
2021/03/20 09:16:56;;;;;;;9.43;6.25;;;5.30;99.90;;;;;;5132591;27;20528;-78
2021/03/20 09:19:30;;;;;;;9.95;5.82;;;5.40;99.90;;;;;;5133917;27;20042;-79
2021/03/20 09:22:08;;;;;;;9.15;5.82;;;5.50;99.90;;;;;;5154974;27;20042;-79
2021/03/20 09:24:35;;;;;;;16.23;6.35;;;5.90;99.90;;;;;;5086978;27;20046;-79
2021/03/20 09:27:02;;;;;;;9.25;5.82;;;5.90;99.90;;;;;;5153363;27;20470;-79
2021/03/20 09:29:34;;;;;;;8.52;5.90;;;6.00;99.90;;;;;;5154539;27;20023;-79
2021/03/20 09:32:10;;;;;;;12.15;6.30;;;5.90;99.90;;;;;;5149360;27;20039;-79
2021/03/20 09:34:40;;;;;;;10.35;5.97;;;6.00;99.90;;;;;;5130213;27;20049;-79
2021/03/20 09:37:26;;;;;;;8.63;6.00;;;6.10;99.90;;;;;;5131614;27;20055;-79
2021/03/20 09:39:53;;;;;;;8.32;6.03;;;6.30;99.90;;;;;;5126224;27;20045;-79
2021/03/20 09:42:28;;;;;;;11.90;6.00;;;6.50;99.90;;;;;;5153089;27;20039;-79
2021/03/20 09:44:58;;;;;;;10.40;5.53;;;6.60;99.90;;;;;;5151026;27;20062;-78
2021/03/20 09:47:45;;;;;;;8.32;5.90;;;6.70;99.90;;;;;;5134783;27;20062;-79
2021/03/20 09:50:17;;;;;;;7.88;5.25;;;6.70;99.90;;;;;;5130297;27;20039;-80
2021/03/20 09:52:45;;;;;;;10.88;5.85;;;6.60;99.90;;;;;;5124608;27;20061;-80
2021/03/20 09:55:29;;;;;;;12.63;6.10;;;6.60;99.90;;;;;;5126600;27;20489;-79
2021/03/20 09:57:57;;;;;;;9.77;6.35;;;6.70;99.90;;;;;;5120507;27;20464;-81
2021/03/20 10:00:51;;;;;;;9.27;5.85;;;6.60;99.90;;;;;;5150979;27;20034;-81
2021/03/20 10:04:01;;;;;;;9.75;6.07;;;6.60;99.90;;;;;;5115002;27;20497;-82
2021/03/20 10:06:41;;;;;;;11.65;5.63;;;6.60;99.90;;;;;;5050428;28;20139;-80
2021/03/20 10:09:07;;;;;;;8.93;5.80;;;6.60;99.90;;;;;;5057047;28;20476;-85
2021/03/20 10:11:51;;;;;;;8.30;5.78;;;6.50;99.90;;;;;;5058935;28;20069;-82
2021/03/20 10:14:30;;;;;;;8.18;4.57;;;6.70;99.90;;;;;;5071218;28;20060;-85
2021/03/20 10:17:06;;;;;;;8.88;5.53;;;6.60;99.90;;;;;;5051485;28;20048;-86
2021/03/20 10:19:44;;;;;;;9.07;6.15;;;6.70;99.90;;;;;;5053749;28;20124;-84
2021/03/20 10:22:26;;;;;;;10.38;6.75;;;6.80;99.90;;;;;;5068927;28;20052;-81
2021/03/20 10:24:59;;;;;;;9.02;6.15;;;6.90;99.90;;;;;;5069409;28;20119;-84
2021/03/20 10:28:12;;;;;;;8.60;6.20;;;7.00;99.90;;;;;;5053734;28;20049;-81
2021/03/20 10:30:58;;;;;;;9.20;6.63;;;6.90;99.90;;;;;;4989862;28;20050;-83
2021/03/20 10:33:35;;;;;;;8.05;6.10;;;7.00;99.90;;;;;;5006264;28;20473;-81
2021/03/20 10:36:09;;;;;;;9.55;5.68;;;7.20;99.90;;;;;;4987457;28;20061;-82
2021/03/20 10:38:36;;;;;;;9.15;5.68;;;7.20;99.90;;;;;;4988898;28;20430;-82
2021/03/20 10:41:25;;;;;;;15.82;5.75;;;7.10;99.90;;;;;;5014030;28;20253;-82
2021/03/20 10:43:56;;;;;;;6.97;5.65;;;7.00;99.90;;;;;;5065225;28;20036;-83
2021/03/20 10:46:26;;;;;;;10.38;5.80;;;6.90;99.90;;;;;;5064575;28;20055;-83
2021/03/20 10:48:55;;;;;;;9.82;5.72;;;6.90;99.90;;;;;;5064493;28;20495;-83
2021/03/20 10:51:22;;;;;;;8.70;6.50;;;6.90;99.90;;;;;;5065157;28;20186;-82
2021/03/20 10:53:52;;;;;;;10.45;6.35;;;6.90;99.90;;;;;;5045878;28;20080;-82
2021/03/20 10:56:35;;;;;;;11.57;6.93;;;7.00;99.90;;;;;;5042966;28;20045;-83
2021/03/20 10:59:14;;;;;;;10.73;5.88;;;7.00;99.90;;;;;;5064530;28;20392;-83
2021/03/20 11:01:40;;;;;;;14.50;6.75;;;7.00;99.90;;;;;;5044906;28;20040;-83
2021/03/20 11:04:13;;;;;;;10.05;6.57;;;6.90;99.90;;;;;;5026108;28;20048;-82
2021/03/20 11:06:38;;;;;;;10.35;6.03;;;7.00;99.90;;;;;;5091472;27;20065;-83
2021/03/20 11:09:14;;;;;;;9.25;5.30;;;7.20;99.90;;;;;;5146735;27;20082;-82
2021/03/20 11:11:43;;;;;;;12.73;5.85;;;7.20;99.90;;;;;;5141370;27;20076;-81
2021/03/20 11:14:12;;;;;;;10.05;5.25;;;7.30;99.90;;;;;;5154532;27;20039;-81
2021/03/20 11:16:50;;;;;;;11.55;5.18;;;7.30;99.90;;;;;;5135181;27;20047;-82
2021/03/20 11:19:30;;;;;;;11.48;5.10;;;7.20;99.90;;;;;;5122153;27;20129;-81
2021/03/20 11:25:42;;;;;;;8.80;4.85;;;7.30;99.90;;;;;;5152887;27;20046;-79
2021/03/20 11:28:25;;;;;;;10.55;4.97;;;7.50;99.90;;;;;;5154275;27;20039;-79
2021/03/20 11:30:52;;;;;;;10.65;5.40;;;7.40;99.90;;;;;;5132406;27;20117;-78
2021/03/20 11:33:21;;;;;;;7.28;5.22;;;7.70;99.90;;;;;;5147675;27;20034;-79
2021/03/20 11:35:54;;;;;;;10.65;5.47;;;7.70;99.90;;;;;;5148597;27;20041;-80
2021/03/20 11:38:21;;;;;;;10.98;5.03;;;7.90;99.90;;;;;;5148037;27;20474;-79
2021/03/20 11:41:07;;;;;;;8.18;4.78;;;7.90;99.90;;;;;;5127791;27;20057;-81
2021/03/20 11:43:51;;;;;;;9.00;4.30;;;8.20;99.90;;;;;;5116900;27;20466;-82
2021/03/20 11:46:24;;;;;;;11.27;4.75;;;7.80;99.90;;;;;;5129246;27;20072;-79
2021/03/20 11:48:55;;;;;;;9.75;4.95;;;7.70;99.90;;;;;;5149134;27;20027;-79
2021/03/20 11:51:30;;;;;;;8.48;4.35;;;7.70;99.90;;;;;;5117081;27;20176;-80
2021/03/20 11:53:59;;;;;;;11.07;4.60;;;7.60;99.90;;;;;;5135781;27;20050;-81
2021/03/20 11:56:31;;;;;;;8.55;4.80;;;7.50;99.90;;;;;;5134336;27;20051;-79
2021/03/20 11:59:00;;;;;;;8.07;4.38;;;7.40;99.90;;;;;;5123125;27;20062;-78
2021/03/20 12:01:31;;;;;;;9.95;4.53;;;7.50;99.90;;;;;;5135403;27;20122;-80
2021/03/20 12:04:00;;;;;;;9.45;3.80;;;7.50;99.90;;;;;;5153646;27;20117;-80
2021/03/20 12:06:28;;;;;;;10.85;3.92;;;7.40;99.90;;;;;;5135292;27;20101;-80
2021/03/20 12:09:03;;;;;;;8.73;3.78;;;7.50;99.90;;;;;;5154049;27;20062;-79
2021/03/20 12:11:44;;;;;;;10.85;4.07;;;7.50;99.90;;;;;;5127475;27;20126;-79
2021/03/20 12:14:32;;;;;;;8.35;3.63;;;7.60;99.90;;;;;;5130912;27;20042;-78
2021/03/20 12:17:25;;;;;;;7.85;3.58;;;7.50;99.90;;;;;;5147817;27;20038;-78
2021/03/20 12:20:07;;;;;;;5.63;3.42;;;7.40;99.90;;;;;;5127761;27;20057;-78
2021/03/20 12:22:44;;;;;;;9.52;3.65;;;7.40;99.90;;;;;;5126785;27;20055;-79
2021/03/20 12:25:13;;;;;;;6.57;3.13;;;7.50;99.90;;;;;;5125565;27;20115;-79
2021/03/20 12:27:40;;;;;;;11.65;3.88;;;7.40;99.90;;;;;;5148195;27;20046;-78
2021/03/20 12:30:20;;;;;;;7.57;3.63;;;7.50;99.90;;;;;;5146186;27;20795;-79
2021/03/20 12:32:48;;;;;;;8.82;3.25;;;7.60;99.90;;;;;;5150950;27;20062;-79
2021/03/20 12:35:17;;;;;;;12.43;4.10;;;7.40;99.90;;;;;;5154162;27;20039;-81
2021/03/20 12:38:05;;;;;;;9.23;3.70;;;7.50;99.90;;;;;;5153947;27;20045;-78
2021/03/20 12:40:32;;;;;;;6.68;3.30;;;7.60;99.90;;;;;;5149474;27;20030;-79
2021/03/20 12:43:06;;;;;;;10.90;3.78;;;7.50;99.90;;;;;;5132408;27;20156;-79
2021/03/20 12:45:34;;;;;;;11.13;4.50;;;7.40;99.90;;;;;;5126038;27;20054;-79
2021/03/20 12:48:00;;;;;;;11.18;4.05;;;7.40;99.90;;;;;;5127899;27;20088;-81
2021/03/20 12:50:26;;;;;;;12.30;4.38;;;7.30;99.90;;;;;;5129669;27;20110;-79
2021/03/20 12:52:52;;;;;;;7.53;3.33;;;7.40;99.90;;;;;;5131051;27;20054;-78
2021/03/20 12:55:17;;;;;;;10.40;3.67;;;7.10;99.90;;;;;;5129498;27;21706;-80
2021/03/20 12:57:43;;;;;;;6.28;4.38;;;7.00;99.90;;;;;;5130985;27;20508;-80
2021/03/20 13:00:21;;;;;;;13.43;5.57;;;6.90;99.90;;;;;;5132330;27;20054;-79
2021/03/20 13:02:47;;;;;;;8.68;4.60;;;6.80;99.90;;;;;;5126719;27;20051;-80
2021/03/20 13:05:26;;;;;;;9.57;4.45;;;6.70;99.90;;;;;;5147308;27;20026;-80
2021/03/20 13:07:53;;;;;;;10.27;4.68;;;6.70;99.90;;;;;;5107712;27;20039;-80
2021/03/20 13:10:20;;;;;;;8.20;4.38;;;6.70;99.90;;;;;;5127810;27;20046;-80
2021/03/20 13:12:46;;;;;;;7.05;4.15;;;6.60;99.90;;;;;;5153847;27;20081;-79
2021/03/20 13:15:13;;;;;;;10.02;5.18;;;6.60;99.90;;;;;;5126488;27;20443;-80
2021/03/20 13:17:38;;;;;;;10.07;4.88;;;6.60;99.90;;;;;;5148299;27;20047;-79
2021/03/20 13:20:07;;;;;;;10.30;4.10;;;6.60;99.90;;;;;;5148089;27;20034;-79
2021/03/20 13:22:32;;;;;;;6.70;3.35;;;6.50;99.90;;;;;;5124373;27;20047;-79
2021/03/20 13:24:58;;;;;;;10.00;4.90;;;6.50;99.90;;;;;;5141608;27;20070;-80
2021/03/20 13:27:24;;;;;;;10.32;4.47;;;6.40;99.90;;;;;;5121747;27;20051;-80
2021/03/20 13:29:50;;;;;;;11.55;4.93;;;6.50;99.90;;;;;;5124291;27;20122;-79
2021/03/20 13:32:17;;;;;;;12.40;4.97;;;6.50;99.90;;;;;;5131061;27;20050;-80
2021/03/20 13:34:42;;;;;;;10.40;4.50;;;6.60;99.90;;;;;;5125752;27;20413;-78
2021/03/20 13:37:08;;;;;;;4.57;3.50;;;6.70;99.90;;;;;;5140674;27;20429;-78